TJSJ/SJU METAR and TAF weather

Enter ICAO airport designator
Station Type Date Time Source
TJSJ METAR 2019/06/16 20:56 UTC NOAA

TJSJ 162056Z 07018KT 10SM FEW026 SCT036 SCT065 29/24 A3000 RMK AO2 SLP159 VCSH SE T02940244 56008


Station Type Date Time Source
TJSJ Decoded METAR 2019/06/16 20:56 UTC NOAA

San Juan, Luis Munoz Marin International Airport, PR, United States (TJSJ) 18-27N 066-00W
Jun 16, 2019 - 04:56 PM EDT / 2019.06.16 2056 UTC
Wind: from the ENE (070 degrees) at 21 MPH (18 KT):0
Visibility: 10 mile(s):0
Sky conditions: partly cloudy
Temperature: 84.9 F (29.4 C)
Dew Point: 75.9 F (24.4 C)
Relative Humidity: 74%
Pressure (altimeter): 30 in. Hg (1015 hPa)
Pressure tendency: 0.02 inches (0.8 hPa) lower than three hours ago
ob: TJSJ 162056Z 07018KT 10SM FEW026 SCT036 SCT065 29/24 A3000 RMK AO2 SLP159 VCSH SE T02940244 56008
cycle: 21

Station Type Date Time Source
TJSJ TAF 2019/06/16 21:59 UTC NOAA

TAF
AMD TJSJ 162059Z 1621/1718 06018G24KT P6SM VCSH SCT030 BKN060
FM162300 09012KT P6SM VCSH SCT028 BKN060
FM170600 10008KT P6SM VCSH FEW026
FM171300 07018G24KT P6SM SCT028 BKN050

Example: see airport list